sensor_id;sensor_type;location;lat;lon;timestamp;P1;durP1;ratioP1;P2;durP2;ratioP2
15643;SDS011;7921;43.586;1.408;2024-01-16T00:01:54;4.60;;;4.20;;
15643;SDS011;7921;43.586;1.408;2024-01-16T00:04:19;4.53;;;4.13;;
15643;SDS011;7921;43.586;1.408;2024-01-16T00:06:45;3.70;;;3.40;;
15643;SDS011;7921;43.586;1.408;2024-01-16T00:09:10;3.63;;;2.30;;
15643;SDS011;7921;43.586;1.408;2024-01-16T00:11:42;2.60;;;2.40;;
15643;SDS011;7921;43.586;1.408;2024-01-16T00:14:08;2.47;;;2.27;;
15643;SDS011;7921;43.586;1.408;2024-01-16T00:16:33;2.00;;;1.90;;
15643;SDS011;7921;43.586;1.408;2024-01-16T00:18:59;2.13;;;2.00;;
15643;SDS011;7921;43.586;1.408;2024-01-16T00:21:24;1.90;;;1.70;;
15643;SDS011;7921;43.586;1.408;2024-01-16T00:23:49;1.87;;;1.73;;
15643;SDS011;7921;43.586;1.408;2024-01-16T00:26:22;1.77;;;1.67;;
15643;SDS011;7921;43.586;1.408;2024-01-16T00:28:47;1.87;;;1.77;;
15643;SDS011;7921;43.586;1.408;2024-01-16T00:31:13;1.97;;;1.87;;
15643;SDS011;7921;43.586;1.408;2024-01-16T00:33:38;1.67;;;1.57;;
15643;SDS011;7921;43.586;1.408;2024-01-16T00:36:04;1.73;;;1.63;;
15643;SDS011;7921;43.586;1.408;2024-01-16T00:38:32;1.60;;;1.30;;
15643;SDS011;7921;43.586;1.408;2024-01-16T00:40:58;1.87;;;1.43;;
15643;SDS011;7921;43.586;1.408;2024-01-16T00:43:23;1.43;;;1.33;;
15643;SDS011;7921;43.586;1.408;2024-01-16T00:45:49;1.10;;;1.00;;
15643;SDS011;7921;43.586;1.408;2024-01-16T00:48:14;2.00;;;1.30;;
15643;SDS011;7921;43.586;1.408;2024-01-16T00:50:40;1.03;;;0.93;;
15643;SDS011;7921;43.586;1.408;2024-01-16T00:53:06;1.10;;;1.00;;
15643;SDS011;7921;43.586;1.408;2024-01-16T00:55:31;0.90;;;0.80;;
15643;SDS011;7921;43.586;1.408;2024-01-16T00:57:57;0.93;;;0.93;;
15643;SDS011;7921;43.586;1.408;2024-01-16T01:00:22;1.00;;;1.00;;
15643;SDS011;7921;43.586;1.408;2024-01-16T01:02:47;1.10;;;0.97;;
15643;SDS011;7921;43.586;1.408;2024-01-16T01:05:13;1.20;;;1.10;;
15643;SDS011;7921;43.586;1.408;2024-01-16T01:07:38;2.23;;;0.90;;
15643;SDS011;7921;43.586;1.408;2024-01-16T01:10:04;0.83;;;0.83;;
15643;SDS011;7921;43.586;1.408;2024-01-16T01:12:30;0.93;;;0.80;;
15643;SDS011;7921;43.586;1.408;2024-01-16T01:14:55;1.50;;;0.70;;
15643;SDS011;7921;43.586;1.408;2024-01-16T01:17:21;0.80;;;0.80;;
15643;SDS011;7921;43.586;1.408;2024-01-16T01:19:46;1.93;;;0.97;;
15643;SDS011;7921;43.586;1.408;2024-01-16T01:22:11;1.10;;;0.90;;
15643;SDS011;7921;43.586;1.408;2024-01-16T01:24:37;1.13;;;0.93;;
15643;SDS011;7921;43.586;1.408;2024-01-16T01:27:02;1.00;;;1.00;;
15643;SDS011;7921;43.586;1.408;2024-01-16T01:29:29;1.03;;;1.03;;
15643;SDS011;7921;43.586;1.408;2024-01-16T01:31:54;1.17;;;1.07;;
15643;SDS011;7921;43.586;1.408;2024-01-16T01:34:19;1.30;;;1.20;;
15643;SDS011;7921;43.586;1.408;2024-01-16T01:36:45;1.20;;;1.10;;
15643;SDS011;7921;43.586;1.408;2024-01-16T01:39:10;1.37;;;1.27;;
15643;SDS011;7921;43.586;1.408;2024-01-16T01:41:36;1.60;;;1.50;;
15643;SDS011;7921;43.586;1.408;2024-01-16T01:44:02;1.50;;;1.40;;
15643;SDS011;7921;43.586;1.408;2024-01-16T01:46:27;1.67;;;1.57;;
15643;SDS011;7921;43.586;1.408;2024-01-16T01:48:53;1.57;;;1.47;;
15643;SDS011;7921;43.586;1.408;2024-01-16T01:51:18;2.00;;;1.70;;
15643;SDS011;7921;43.586;1.408;2024-01-16T01:53:44;1.93;;;1.83;;
15643;SDS011;7921;43.586;1.408;2024-01-16T01:56:11;1.60;;;1.50;;
15643;SDS011;7921;43.586;1.408;2024-01-16T01:58:37;1.63;;;1.53;;
15643;SDS011;7921;43.586;1.408;2024-01-16T02:01:03;1.50;;;1.40;;
15643;SDS011;7921;43.586;1.408;2024-01-16T02:03:29;1.50;;;1.40;;
15643;SDS011;7921;43.586;1.408;2024-01-16T02:05:57;1.57;;;1.13;;
15643;SDS011;7921;43.586;1.408;2024-01-16T02:08:24;1.00;;;1.00;;
15643;SDS011;7921;43.586;1.408;2024-01-16T02:10:49;1.10;;;1.00;;
15643;SDS011;7921;43.586;1.408;2024-01-16T02:13:15;1.40;;;1.30;;
15643;SDS011;7921;43.586;1.408;2024-01-16T02:15:43;1.43;;;1.33;;
15643;SDS011;7921;43.586;1.408;2024-01-16T02:18:09;0.90;;;0.90;;
15643;SDS011;7921;43.586;1.408;2024-01-16T02:20:34;1.10;;;1.00;;
15643;SDS011;7921;43.586;1.408;2024-01-16T02:23:00;1.20;;;1.00;;
15643;SDS011;7921;43.586;1.408;2024-01-16T02:25:29;0.93;;;0.93;;
15643;SDS011;7921;43.586;1.408;2024-01-16T02:27:54;1.40;;;1.30;;
15643;SDS011;7921;43.586;1.408;2024-01-16T02:30:20;1.20;;;1.10;;
15643;SDS011;7921;43.586;1.408;2024-01-16T02:32:45;1.10;;;1.00;;
15643;SDS011;7921;43.586;1.408;2024-01-16T02:35:11;0.80;;;0.80;;
15643;SDS011;7921;43.586;1.408;2024-01-16T02:37:36;0.90;;;0.90;;
15643;SDS011;7921;43.586;1.408;2024-01-16T02:40:01;0.90;;;0.90;;
15643;SDS011;7921;43.586;1.408;2024-01-16T02:42:31;1.10;;;1.10;;
15643;SDS011;7921;43.586;1.408;2024-01-16T02:44:57;2.50;;;1.10;;
15643;SDS011;7921;43.586;1.408;2024-01-16T02:47:22;1.30;;;1.20;;
15643;SDS011;7921;43.586;1.408;2024-01-16T02:49:48;1.10;;;1.10;;
15643;SDS011;7921;43.586;1.408;2024-01-16T02:52:13;1.43;;;1.33;;
15643;SDS011;7921;43.586;1.408;2024-01-16T02:54:38;1.97;;;1.23;;
15643;SDS011;7921;43.586;1.408;2024-01-16T02:57:04;1.07;;;1.07;;
15643;SDS011;7921;43.586;1.408;2024-01-16T02:59:30;1.40;;;1.30;;
15643;SDS011;7921;43.586;1.408;2024-01-16T03:01:55;2.47;;;1.33;;
15643;SDS011;7921;43.586;1.408;2024-01-16T03:04:21;1.93;;;1.10;;
15643;SDS011;7921;43.586;1.408;2024-01-16T03:06:46;1.43;;;1.20;;
15643;SDS011;7921;43.586;1.408;2024-01-16T03:09:11;1.20;;;1.10;;
15643;SDS011;7921;43.586;1.408;2024-01-16T03:11:37;1.60;;;1.50;;
15643;SDS011;7921;43.586;1.408;2024-01-16T03:14:02;1.20;;;1.10;;
15643;SDS011;7921;43.586;1.408;2024-01-16T03:16:28;1.20;;;1.10;;
15643;SDS011;7921;43.586;1.408;2024-01-16T03:18:53;1.10;;;1.10;;
15643;SDS011;7921;43.586;1.408;2024-01-16T03:21:19;2.10;;;1.30;;
15643;SDS011;7921;43.586;1.408;2024-01-16T03:23:44;3.13;;;1.50;;
15643;SDS011;7921;43.586;1.408;2024-01-16T03:26:13;1.47;;;1.37;;
15643;SDS011;7921;43.586;1.408;2024-01-16T03:28:39;1.23;;;1.20;;
15643;SDS011;7921;43.586;1.408;2024-01-16T03:31:05;1.17;;;1.13;;
15643;SDS011;7921;43.586;1.408;2024-01-16T03:33:30;2.30;;;1.40;;
15643;SDS011;7921;43.586;1.408;2024-01-16T03:35:55;1.50;;;1.40;;
15643;SDS011;7921;43.586;1.408;2024-01-16T03:38:22;1.40;;;1.30;;
15643;SDS011;7921;43.586;1.408;2024-01-16T03:40:47;1.80;;;1.33;;
15643;SDS011;7921;43.586;1.408;2024-01-16T03:43:13;4.00;;;1.73;;
15643;SDS011;7921;43.586;1.408;2024-01-16T03:45:38;2.23;;;2.03;;
15643;SDS011;7921;43.586;1.408;2024-01-16T03:48:04;2.30;;;2.10;;
15643;SDS011;7921;43.586;1.408;2024-01-16T03:50:30;2.70;;;2.50;;
15643;SDS011;7921;43.586;1.408;2024-01-16T03:52:55;3.03;;;2.53;;
15643;SDS011;7921;43.586;1.408;2024-01-16T03:55:20;3.30;;;3.00;;
15643;SDS011;7921;43.586;1.408;2024-01-16T03:57:46;5.57;;;3.00;;
15643;SDS011;7921;43.586;1.408;2024-01-16T04:00:11;3.17;;;2.97;;
15643;SDS011;7921;43.586;1.408;2024-01-16T04:02:40;3.33;;;3.07;;
15643;SDS011;7921;43.586;1.408;2024-01-16T04:05:05;3.27;;;2.97;;
15643;SDS011;7921;43.586;1.408;2024-01-16T04:07:31;3.27;;;3.07;;
15643;SDS011;7921;43.586;1.408;2024-01-16T04:09:56;3.30;;;3.00;;
15643;SDS011;7921;43.586;1.408;2024-01-16T04:12:21;3.27;;;2.97;;
15643;SDS011;7921;43.586;1.408;2024-01-16T04:14:47;3.20;;;3.00;;
15643;SDS011;7921;43.586;1.408;2024-01-16T04:17:12;3.37;;;2.87;;
15643;SDS011;7921;43.586;1.408;2024-01-16T04:19:37;3.47;;;3.17;;
15643;SDS011;7921;43.586;1.408;2024-01-16T04:22:04;3.03;;;2.83;;
15643;SDS011;7921;43.586;1.408;2024-01-16T04:24:30;3.17;;;2.97;;
15643;SDS011;7921;43.586;1.408;2024-01-16T04:26:55;3.10;;;2.90;;
15643;SDS011;7921;43.586;1.408;2024-01-16T04:29:21;3.80;;;3.50;;
15643;SDS011;7921;43.586;1.408;2024-01-16T04:31:46;3.23;;;3.03;;
15643;SDS011;7921;43.586;1.408;2024-01-16T04:34:11;3.60;;;3.30;;
15643;SDS011;7921;43.586;1.408;2024-01-16T04:36:37;3.53;;;3.20;;
15643;SDS011;7921;43.586;1.408;2024-01-16T04:39:02;3.67;;;3.13;;
15643;SDS011;7921;43.586;1.408;2024-01-16T04:41:28;3.70;;;3.40;;
15643;SDS011;7921;43.586;1.408;2024-01-16T04:43:54;3.60;;;3.30;;
15643;SDS011;7921;43.586;1.408;2024-01-16T04:46:20;3.30;;;3.10;;
15643;SDS011;7921;43.586;1.408;2024-01-16T04:48:45;3.60;;;3.30;;
15643;SDS011;7921;43.586;1.408;2024-01-16T04:51:10;2.90;;;2.70;;
15643;SDS011;7921;43.586;1.408;2024-01-16T04:53:36;2.90;;;2.70;;
15643;SDS011;7921;43.586;1.408;2024-01-16T04:56:01;2.37;;;2.17;;
15643;SDS011;7921;43.586;1.408;2024-01-16T04:58:27;2.80;;;2.60;;
15643;SDS011;7921;43.586;1.408;2024-01-16T05:00:52;4.20;;;2.90;;
15643;SDS011;7921;43.586;1.408;2024-01-16T05:03:18;3.70;;;3.40;;
15643;SDS011;7921;43.586;1.408;2024-01-16T05:05:43;3.97;;;2.60;;
15643;SDS011;7921;43.586;1.408;2024-01-16T05:08:09;3.20;;;2.90;;
15643;SDS011;7921;43.586;1.408;2024-01-16T05:10:34;2.80;;;2.60;;
15643;SDS011;7921;43.586;1.408;2024-01-16T05:12:59;3.03;;;2.40;;
15643;SDS011;7921;43.586;1.408;2024-01-16T05:15:25;2.47;;;2.27;;
15643;SDS011;7921;43.586;1.408;2024-01-16T05:17:51;3.07;;;2.33;;
15643;SDS011;7921;43.586;1.408;2024-01-16T05:20:16;3.00;;;2.43;;
15643;SDS011;7921;43.586;1.408;2024-01-16T05:22:42;2.60;;;2.40;;
15643;SDS011;7921;43.586;1.408;2024-01-16T05:25:07;2.17;;;1.97;;
15643;SDS011;7921;43.586;1.408;2024-01-16T05:27:33;2.27;;;2.10;;
15643;SDS011;7921;43.586;1.408;2024-01-16T05:29:59;2.20;;;2.10;;
15643;SDS011;7921;43.586;1.408;2024-01-16T05:32:25;2.00;;;1.80;;
15643;SDS011;7921;43.586;1.408;2024-01-16T05:34:51;1.60;;;1.50;;
15643;SDS011;7921;43.586;1.408;2024-01-16T05:37:17;1.43;;;1.33;;
15643;SDS011;7921;43.586;1.408;2024-01-16T05:39:42;1.47;;;1.33;;
15643;SDS011;7921;43.586;1.408;2024-01-16T05:42:08;2.37;;;1.53;;
15643;SDS011;7921;43.586;1.408;2024-01-16T05:44:34;1.80;;;1.33;;
15643;SDS011;7921;43.586;1.408;2024-01-16T05:46:59;1.43;;;1.33;;
15643;SDS011;7921;43.586;1.408;2024-01-16T05:49:24;1.30;;;1.17;;
15643;SDS011;7921;43.586;1.408;2024-01-16T05:51:50;1.40;;;1.17;;
15643;SDS011;7921;43.586;1.408;2024-01-16T05:54:15;0.83;;;0.80;;
15643;SDS011;7921;43.586;1.408;2024-01-16T05:56:40;1.10;;;1.10;;
15643;SDS011;7921;43.586;1.408;2024-01-16T05:59:06;1.20;;;0.80;;
15643;SDS011;7921;43.586;1.408;2024-01-16T06:01:32;1.23;;;0.90;;
15643;SDS011;7921;43.586;1.408;2024-01-16T06:03:57;1.20;;;1.10;;
15643;SDS011;7921;43.586;1.408;2024-01-16T06:06:23;1.20;;;1.00;;
15643;SDS011;7921;43.586;1.408;2024-01-16T06:08:48;0.80;;;0.80;;
15643;SDS011;7921;43.586;1.408;2024-01-16T06:11:14;2.53;;;1.10;;
15643;SDS011;7921;43.586;1.408;2024-01-16T06:13:39;0.77;;;0.77;;
15643;SDS011;7921;43.586;1.408;2024-01-16T06:16:08;1.10;;;1.00;;
15643;SDS011;7921;43.586;1.408;2024-01-16T06:18:34;1.10;;;1.00;;
15643;SDS011;7921;43.586;1.408;2024-01-16T06:21:00;1.07;;;0.97;;
15643;SDS011;7921;43.586;1.408;2024-01-16T06:23:25;1.23;;;0.90;;
15643;SDS011;7921;43.586;1.408;2024-01-16T06:25:51;1.97;;;1.13;;
15643;SDS011;7921;43.586;1.408;2024-01-16T06:28:16;2.23;;;0.90;;
15643;SDS011;7921;43.586;1.408;2024-01-16T06:30:41;0.67;;;0.67;;
15643;SDS011;7921;43.586;1.408;2024-01-16T06:33:07;0.80;;;0.80;;
15643;SDS011;7921;43.586;1.408;2024-01-16T06:35:32;0.90;;;0.90;;
15643;SDS011;7921;43.586;1.408;2024-01-16T06:37:57;0.80;;;0.80;;
15643;SDS011;7921;43.586;1.408;2024-01-16T06:40:23;1.10;;;1.00;;
15643;SDS011;7921;43.586;1.408;2024-01-16T06:42:48;1.53;;;0.87;;
15643;SDS011;7921;43.586;1.408;2024-01-16T06:45:14;0.77;;;0.77;;
15643;SDS011;7921;43.586;1.408;2024-01-16T06:47:40;1.00;;;0.90;;
15643;SDS011;7921;43.586;1.408;2024-01-16T06:50:07;0.70;;;0.70;;
15643;SDS011;7921;43.586;1.408;2024-01-16T06:52:32;1.00;;;0.90;;
15643;SDS011;7921;43.586;1.408;2024-01-16T06:54:58;0.70;;;0.70;;
15643;SDS011;7921;43.586;1.408;2024-01-16T06:57:23;0.80;;;0.80;;
15643;SDS011;7921;43.586;1.408;2024-01-16T06:59:49;0.97;;;0.93;;
15643;SDS011;7921;43.586;1.408;2024-01-16T07:02:14;1.57;;;0.70;;
15643;SDS011;7921;43.586;1.408;2024-01-16T07:04:40;1.20;;;0.70;;
15643;SDS011;7921;43.586;1.408;2024-01-16T07:07:05;1.47;;;0.83;;
15643;SDS011;7921;43.586;1.408;2024-01-16T07:09:30;0.80;;;0.80;;
15643;SDS011;7921;43.586;1.408;2024-01-16T07:11:56;0.80;;;0.70;;
15643;SDS011;7921;43.586;1.408;2024-01-16T07:14:21;1.23;;;0.90;;
15643;SDS011;7921;43.586;1.408;2024-01-16T07:16:47;1.10;;;1.00;;
15643;SDS011;7921;43.586;1.408;2024-01-16T07:19:12;1.53;;;1.03;;
15643;SDS011;7921;43.586;1.408;2024-01-16T07:21:38;1.27;;;1.17;;
15643;SDS011;7921;43.586;1.408;2024-01-16T07:24:03;3.53;;;1.10;;
15643;SDS011;7921;43.586;1.408;2024-01-16T07:26:29;1.40;;;1.10;;
15643;SDS011;7921;43.586;1.408;2024-01-16T07:28:55;1.73;;;1.10;;
15643;SDS011;7921;43.586;1.408;2024-01-16T07:31:20;1.30;;;1.10;;
15643;SDS011;7921;43.586;1.408;2024-01-16T07:33:46;1.30;;;1.20;;
15643;SDS011;7921;43.586;1.408;2024-01-16T07:36:11;1.40;;;1.00;;
15643;SDS011;7921;43.586;1.408;2024-01-16T07:38:37;1.30;;;1.20;;
15643;SDS011;7921;43.586;1.408;2024-01-16T07:41:02;1.77;;;1.00;;
15643;SDS011;7921;43.586;1.408;2024-01-16T07:43:28;1.13;;;1.03;;
15643;SDS011;7921;43.586;1.408;2024-01-16T07:45:56;1.57;;;1.13;;
15643;SDS011;7921;43.586;1.408;2024-01-16T07:48:22;1.80;;;1.10;;
15643;SDS011;7921;43.586;1.408;2024-01-16T07:50:50;1.60;;;1.30;;
15643;SDS011;7921;43.586;1.408;2024-01-16T07:53:15;1.93;;;1.27;;
15643;SDS011;7921;43.586;1.408;2024-01-16T07:55:41;1.83;;;1.60;;
15643;SDS011;7921;43.586;1.408;2024-01-16T07:58:10;1.40;;;1.30;;
15643;SDS011;7921;43.586;1.408;2024-01-16T08:00:36;1.53;;;1.43;;
15643;SDS011;7921;43.586;1.408;2024-01-16T08:03:01;1.30;;;1.20;;
15643;SDS011;7921;43.586;1.408;2024-01-16T08:05:28;2.30;;;1.37;;
15643;SDS011;7921;43.586;1.408;2024-01-16T08:07:55;1.50;;;1.40;;
15643;SDS011;7921;43.586;1.408;2024-01-16T08:10:20;1.20;;;1.10;;
15643;SDS011;7921;43.586;1.408;2024-01-16T08:12:46;1.97;;;1.80;;
15643;SDS011;7921;43.586;1.408;2024-01-16T08:15:11;1.80;;;1.70;;
15643;SDS011;7921;43.586;1.408;2024-01-16T08:17:36;1.97;;;1.70;;
15643;SDS011;7921;43.586;1.408;2024-01-16T08:20:02;1.80;;;1.70;;
15643;SDS011;7921;43.586;1.408;2024-01-16T08:22:28;1.73;;;1.33;;
15643;SDS011;7921;43.586;1.408;2024-01-16T08:24:53;1.57;;;1.47;;
15643;SDS011;7921;43.586;1.408;2024-01-16T08:27:19;1.90;;;1.80;;
15643;SDS011;7921;43.586;1.408;2024-01-16T08:29:44;1.60;;;1.50;;
15643;SDS011;7921;43.586;1.408;2024-01-16T08:32:10;1.70;;;1.60;;
15643;SDS011;7921;43.586;1.408;2024-01-16T08:34:35;1.60;;;1.50;;
15643;SDS011;7921;43.586;1.408;2024-01-16T08:37:00;1.50;;;1.40;;
15643;SDS011;7921;43.586;1.408;2024-01-16T08:39:26;2.27;;;1.30;;
15643;SDS011;7921;43.586;1.408;2024-01-16T08:41:52;1.93;;;1.70;;
15643;SDS011;7921;43.586;1.408;2024-01-16T08:44:19;1.40;;;1.30;;
15643;SDS011;7921;43.586;1.408;2024-01-16T08:46:44;1.47;;;1.37;;
15643;SDS011;7921;43.586;1.408;2024-01-16T08:49:11;1.17;;;1.13;;
15643;SDS011;7921;43.586;1.408;2024-01-16T08:51:36;1.73;;;1.30;;
15643;SDS011;7921;43.586;1.408;2024-01-16T08:54:02;3.00;;;1.80;;
15643;SDS011;7921;43.586;1.408;2024-01-16T08:56:27;1.93;;;1.80;;
15643;SDS011;7921;43.586;1.408;2024-01-16T08:58:53;1.60;;;1.50;;
15643;SDS011;7921;43.586;1.408;2024-01-16T09:01:18;1.90;;;1.70;;
15643;SDS011;7921;43.586;1.408;2024-01-16T09:03:45;2.13;;;1.77;;
15643;SDS011;7921;43.586;1.408;2024-01-16T09:06:11;1.53;;;1.43;;
15643;SDS011;7921;43.586;1.408;2024-01-16T09:08:36;2.10;;;1.47;;
15643;SDS011;7921;43.586;1.408;2024-01-16T09:11:02;2.30;;;1.70;;
15643;SDS011;7921;43.586;1.408;2024-01-16T09:13:27;1.67;;;1.40;;
15643;SDS011;7921;43.586;1.408;2024-01-16T09:15:53;2.37;;;1.50;;
15643;SDS011;7921;43.586;1.408;2024-01-16T09:18:18;2.60;;;1.30;;
15643;SDS011;7921;43.586;1.408;2024-01-16T09:20:44;1.57;;;0.97;;
15643;SDS011;7921;43.586;1.408;2024-01-16T09:23:09;1.77;;;1.23;;
15643;SDS011;7921;43.586;1.408;2024-01-16T09:25:35;1.47;;;1.37;;
15643;SDS011;7921;43.586;1.408;2024-01-16T09:28:01;1.63;;;1.33;;
15643;SDS011;7921;43.586;1.408;2024-01-16T09:30:26;1.87;;;1.40;;
15643;SDS011;7921;43.586;1.408;2024-01-16T09:32:52;1.90;;;1.13;;
15643;SDS011;7921;43.586;1.408;2024-01-16T09:35:17;2.00;;;0.93;;
15643;SDS011;7921;43.586;1.408;2024-01-16T09:37:43;1.70;;;1.20;;
15643;SDS011;7921;43.586;1.408;2024-01-16T09:40:09;1.47;;;1.10;;
15643;SDS011;7921;43.586;1.408;2024-01-16T09:42:34;3.27;;;1.27;;
15643;SDS011;7921;43.586;1.408;2024-01-16T09:45:00;2.70;;;1.10;;
15643;SDS011;7921;43.586;1.408;2024-01-16T09:47:28;2.00;;;0.93;;
15643;SDS011;7921;43.586;1.408;2024-01-16T09:49:56;2.17;;;1.13;;
15643;SDS011;7921;43.586;1.408;2024-01-16T09:52:22;0.90;;;0.90;;
15643;SDS011;7921;43.586;1.408;2024-01-16T09:54:48;1.10;;;1.00;;
15643;SDS011;7921;43.586;1.408;2024-01-16T09:57:13;1.13;;;0.93;;
15643;SDS011;7921;43.586;1.408;2024-01-16T09:59:40;1.53;;;1.10;;
15643;SDS011;7921;43.586;1.408;2024-01-16T10:02:07;2.47;;;1.10;;
15643;SDS011;7921;43.586;1.408;2024-01-16T10:04:34;2.30;;;1.40;;
15643;SDS011;7921;43.586;1.408;2024-01-16T10:06:59;3.27;;;1.10;;
15643;SDS011;7921;43.586;1.408;2024-01-16T10:09:26;1.60;;;1.10;;
15643;SDS011;7921;43.586;1.408;2024-01-16T10:11:52;2.10;;;1.03;;
15643;SDS011;7921;43.586;1.408;2024-01-16T10:14:18;1.40;;;0.90;;
15643;SDS011;7921;43.586;1.408;2024-01-16T10:17:02;5.47;;;1.20;;
15643;SDS011;7921;43.586;1.408;2024-01-16T10:19:30;2.37;;;0.90;;
15643;SDS011;7921;43.586;1.408;2024-01-16T10:22:05;2.80;;;0.90;;
15643;SDS011;7921;43.586;1.408;2024-01-16T10:24:31;2.43;;;1.00;;
15643;SDS011;7921;43.586;1.408;2024-01-16T10:26:58;1.30;;;1.00;;
15643;SDS011;7921;43.586;1.408;2024-01-16T10:29:31;2.23;;;1.20;;
15643;SDS011;7921;43.586;1.408;2024-01-16T10:31:57;2.07;;;0.90;;
15643;SDS011;7921;43.586;1.408;2024-01-16T10:34:23;2.33;;;1.20;;
15643;SDS011;7921;43.586;1.408;2024-01-16T10:36:50;1.73;;;0.80;;
15643;SDS011;7921;43.586;1.408;2024-01-16T10:39:17;2.17;;;1.10;;
15643;SDS011;7921;43.586;1.408;2024-01-16T10:41:47;2.73;;;1.00;;
15643;SDS011;7921;43.586;1.408;2024-01-16T10:44:19;1.27;;;1.17;;
15643;SDS011;7921;43.586;1.408;2024-01-16T10:46:44;2.57;;;1.23;;
15643;SDS011;7921;43.586;1.408;2024-01-16T10:49:09;2.13;;;1.53;;
15643;SDS011;7921;43.586;1.408;2024-01-16T10:51:35;0.83;;;0.80;;
15643;SDS011;7921;43.586;1.408;2024-01-16T10:56:29;1.83;;;0.90;;
15643;SDS011;7921;43.586;1.408;2024-01-16T10:58:57;1.27;;;0.80;;
15643;SDS011;7921;43.586;1.408;2024-01-16T11:01:58;2.90;;;0.90;;
15643;SDS011;7921;43.586;1.408;2024-01-16T11:04:25;1.27;;;0.90;;
15643;SDS011;7921;43.586;1.408;2024-01-16T11:06:52;1.70;;;0.80;;
15643;SDS011;7921;43.586;1.408;2024-01-16T11:09:18;2.80;;;1.00;;
15643;SDS011;7921;43.586;1.408;2024-01-16T11:11:43;1.43;;;1.00;;
15643;SDS011;7921;43.586;1.408;2024-01-16T11:14:10;1.40;;;1.00;;
15643;SDS011;7921;43.586;1.408;2024-01-16T11:16:37;1.30;;;1.20;;
15643;SDS011;7921;43.586;1.408;2024-01-16T11:19:04;1.17;;;0.90;;
15643;SDS011;7921;43.586;1.408;2024-01-16T11:21:32;1.87;;;0.90;;
15643;SDS011;7921;43.586;1.408;2024-01-16T11:23:58;2.03;;;0.80;;
15643;SDS011;7921;43.586;1.408;2024-01-16T11:26:33;1.27;;;1.00;;
15643;SDS011;7921;43.586;1.408;2024-01-16T11:29:02;1.83;;;1.00;;
15643;SDS011;7921;43.586;1.408;2024-01-16T11:31:52;2.10;;;1.00;;
15643;SDS011;7921;43.586;1.408;2024-01-16T11:34:36;1.97;;;1.10;;
15643;SDS011;7921;43.586;1.408;2024-01-16T11:37:14;2.33;;;1.03;;
15643;SDS011;7921;43.586;1.408;2024-01-16T11:39:40;0.87;;;0.83;;
15643;SDS011;7921;43.586;1.408;2024-01-16T11:42:05;1.37;;;0.90;;
15643;SDS011;7921;43.586;1.408;2024-01-16T11:44:46;1.37;;;1.23;;
15643;SDS011;7921;43.586;1.408;2024-01-16T11:47:18;3.67;;;0.97;;
15643;SDS011;7921;43.586;1.408;2024-01-16T11:49:45;1.63;;;1.07;;
15643;SDS011;7921;43.586;1.408;2024-01-16T11:52:41;2.13;;;0.80;;
15643;SDS011;7921;43.586;1.408;2024-01-16T12:00:20;1.23;;;1.20;;
15643;SDS011;7921;43.586;1.408;2024-01-16T12:02:49;4.43;;;1.03;;
15643;SDS011;7921;43.586;1.408;2024-01-16T12:05:17;2.33;;;1.93;;
15643;SDS011;7921;43.586;1.408;2024-01-16T12:07:46;1.37;;;1.00;;
15643;SDS011;7921;43.586;1.408;2024-01-16T12:10:19;1.87;;;0.90;;
15643;SDS011;7921;43.586;1.408;2024-01-16T12:12:46;1.53;;;1.00;;
15643;SDS011;7921;43.586;1.408;2024-01-16T12:15:16;0.80;;;0.70;;
15643;SDS011;7921;43.586;1.408;2024-01-16T12:17:55;1.83;;;1.20;;
15643;SDS011;7921;43.586;1.408;2024-01-16T12:20:24;1.63;;;1.10;;
15643;SDS011;7921;43.586;1.408;2024-01-16T12:23:03;2.43;;;1.43;;
15643;SDS011;7921;43.586;1.408;2024-01-16T12:25:31;2.20;;;1.47;;
15643;SDS011;7921;43.586;1.408;2024-01-16T12:27:58;2.03;;;1.00;;
15643;SDS011;7921;43.586;1.408;2024-01-16T12:30:32;1.93;;;0.90;;
15643;SDS011;7921;43.586;1.408;2024-01-16T12:35:36;2.83;;;1.13;;
15643;SDS011;7921;43.586;1.408;2024-01-16T12:38:09;1.30;;;0.90;;
15643;SDS011;7921;43.586;1.408;2024-01-16T12:40:36;1.83;;;1.20;;
15643;SDS011;7921;43.586;1.408;2024-01-16T12:43:03;2.03;;;1.23;;
15643;SDS011;7921;43.586;1.408;2024-01-16T12:45:29;3.17;;;0.93;;
15643;SDS011;7921;43.586;1.408;2024-01-16T12:47:55;3.03;;;0.80;;
15643;SDS011;7921;43.586;1.408;2024-01-16T12:50:27;1.03;;;0.80;;
15643;SDS011;7921;43.586;1.408;2024-01-16T12:53:27;2.17;;;1.20;;
15643;SDS011;7921;43.586;1.408;2024-01-16T12:55:48;2.57;;;0.90;;
15643;SDS011;7921;43.586;1.408;2024-01-16T12:58:22;1.47;;;1.00;;
15643;SDS011;7921;43.586;1.408;2024-01-16T13:00:53;1.40;;;0.90;;
15643;SDS011;7921;43.586;1.408;2024-01-16T13:03:23;2.00;;;0.80;;
15643;SDS011;7921;43.586;1.408;2024-01-16T13:05:57;1.30;;;1.07;;
15643;SDS011;7921;43.586;1.408;2024-01-16T13:08:24;3.93;;;1.10;;
15643;SDS011;7921;43.586;1.408;2024-01-16T13:11:03;1.07;;;0.90;;
15643;SDS011;7921;43.586;1.408;2024-01-16T13:13:29;1.87;;;0.80;;
15643;SDS011;7921;43.586;1.408;2024-01-16T13:15:55;1.77;;;0.93;;
15643;SDS011;7921;43.586;1.408;2024-01-16T13:18:26;1.23;;;0.93;;
15643;SDS011;7921;43.586;1.408;2024-01-16T13:20:52;2.47;;;1.20;;
15643;SDS011;7921;43.586;1.408;2024-01-16T13:23:19;1.20;;;0.83;;
15643;SDS011;7921;43.586;1.408;2024-01-16T13:25:46;1.03;;;0.87;;
15643;SDS011;7921;43.586;1.408;2024-01-16T13:28:12;1.83;;;1.00;;
15643;SDS011;7921;43.586;1.408;2024-01-16T13:30:39;1.10;;;0.70;;
15643;SDS011;7921;43.586;1.408;2024-01-16T13:33:08;1.10;;;1.00;;
15643;SDS011;7921;43.586;1.408;2024-01-16T13:35:34;2.90;;;1.00;;
15643;SDS011;7921;43.586;1.408;2024-01-16T13:38:01;2.17;;;0.97;;
15643;SDS011;7921;43.586;1.408;2024-01-16T13:40:26;1.10;;;1.00;;
15643;SDS011;7921;43.586;1.408;2024-01-16T13:42:52;1.77;;;0.90;;
15643;SDS011;7921;43.586;1.408;2024-01-16T13:45:17;2.97;;;1.00;;
15643;SDS011;7921;43.586;1.408;2024-01-16T13:47:43;4.50;;;1.17;;
15643;SDS011;7921;43.586;1.408;2024-01-16T13:50:09;2.33;;;0.80;;
15643;SDS011;7921;43.586;1.408;2024-01-16T13:52:35;2.43;;;0.97;;
15643;SDS011;7921;43.586;1.408;2024-01-16T13:55:00;1.23;;;0.90;;
15643;SDS011;7921;43.586;1.408;2024-01-16T13:57:30;0.90;;;0.90;;
15643;SDS011;7921;43.586;1.408;2024-01-16T13:59:56;2.73;;;1.10;;
15643;SDS011;7921;43.586;1.408;2024-01-16T14:02:21;1.33;;;0.90;;
15643;SDS011;7921;43.586;1.408;2024-01-16T14:04:47;2.43;;;0.90;;
15643;SDS011;7921;43.586;1.408;2024-01-16T14:07:12;2.40;;;1.00;;
15643;SDS011;7921;43.586;1.408;2024-01-16T14:09:37;3.33;;;0.97;;
15643;SDS011;7921;43.586;1.408;2024-01-16T14:12:03;1.33;;;1.00;;
15643;SDS011;7921;43.586;1.408;2024-01-16T14:14:31;3.00;;;1.83;;
15643;SDS011;7921;43.586;1.408;2024-01-16T14:16:56;0.93;;;0.73;;
15643;SDS011;7921;43.586;1.408;2024-01-16T14:19:22;2.97;;;1.10;;
15643;SDS011;7921;43.586;1.408;2024-01-16T14:21:49;2.17;;;1.00;;
15643;SDS011;7921;43.586;1.408;2024-01-16T14:24:14;1.23;;;0.80;;
15643;SDS011;7921;43.586;1.408;2024-01-16T14:26:43;1.43;;;1.20;;
15643;SDS011;7921;43.586;1.408;2024-01-16T14:29:09;2.47;;;1.30;;
15643;SDS011;7921;43.586;1.408;2024-01-16T14:31:35;1.83;;;1.10;;
15643;SDS011;7921;43.586;1.408;2024-01-16T14:34:00;1.57;;;1.00;;
15643;SDS011;7921;43.586;1.408;2024-01-16T14:36:25;1.70;;;0.93;;
15643;SDS011;7921;43.586;1.408;2024-01-16T14:38:51;2.47;;;1.10;;
15643;SDS011;7921;43.586;1.408;2024-01-16T14:41:16;2.57;;;1.10;;
15643;SDS011;7921;43.586;1.408;2024-01-16T14:43:42;1.47;;;1.00;;
15643;SDS011;7921;43.586;1.408;2024-01-16T14:46:07;1.40;;;0.90;;
15643;SDS011;7921;43.586;1.408;2024-01-16T14:48:35;2.27;;;1.07;;
15643;SDS011;7921;43.586;1.408;2024-01-16T14:51:02;2.07;;;1.30;;
15643;SDS011;7921;43.586;1.408;2024-01-16T14:53:29;1.50;;;1.37;;
15643;SDS011;7921;43.586;1.408;2024-01-16T14:55:54;1.33;;;1.00;;
15643;SDS011;7921;43.586;1.408;2024-01-16T14:58:19;1.43;;;1.33;;
15643;SDS011;7921;43.586;1.408;2024-01-16T15:00:48;2.30;;;1.07;;
15643;SDS011;7921;43.586;1.408;2024-01-16T15:03:14;1.23;;;0.97;;
15643;SDS011;7921;43.586;1.408;2024-01-16T15:05:39;1.20;;;0.87;;
15643;SDS011;7921;43.586;1.408;2024-01-16T15:08:05;2.60;;;1.00;;